Aérodrome :
LOGIN :

S'inscrire | Disclaimer

   EN    FR    IT 

 










Légende :    VFR   VFR Marginal   IFR   IFR Intensif   IFR Très Intensif
Visi : 
Plafond : 
>= 8 km
>= 3000ft
5 à 8 km
1000 à 3000 ft
1500m à 5 km
500 à 1000 ft
800 à 1500m
200 à 500 ft
< 800m
< 200 ft
Symboles :   Orages  Brouillard  Fortes neiges  Fortes précipitations  Vent > 20 kt
SIGMETs :   Divers  Orages  Givrage  Turbulence  Onde Orograph.  Cendres Volcan.







- Altitude de l'aérodrome : 436 ft
- Code IATA : BTS


LZIB - Bratislava

DERNIER METAR :
  • 192300Z 34001KT 9999 FEW046 17/14 Q1021

METARs EXPIRÉS :
  • 192230Z 04002KT 9999 SCT046 16/14 Q1021
  • 192200Z 03004KT 9999 FEW046 16/15 Q1021
  • 192130Z VRB01KT 9999 FEW046 17/15 Q1021
  • 192100Z 04002KT 9999 FEW046 17/14 Q1021
  • 192030Z VRB01KT 9999 FEW046 18/14 Q1021

TAF TAF LZIB
Valide du 19 à 18h jusqu'au 20 à 18h UTC


191700Z 1918/2018 VRB02KT CAVOK
BECMG 2010/2012 14005KT
Pas de NOTAMs connus pour ce terrain.



MET'MAP, la Météo Aéronautique d'un coup d'oeil ! - Copyright ORBIFLY Décembre 2007 - Disclaimer

ORBIFLY MET'MAP TEAM :

Programmation & Développement : Alexandra Zaïnal
Conception & Développement : Baudouin d'Aumeries
Co-Programmation & Développement : Marc-Olivier Méhu
Soutien technique & logistique : Manuel Goepfert

Contact : metmap@orbifly.com




SOURCES & CREDITS :

   NOAA